.
WxDataArchive / Data Records for 2009-10-01
2009-09-30 October 2009 2009-10-02

Data Records for Thursday, 01 October 2009

Time	Temp	Chill	HIndex	Humid	Dewpt	 Wind 	HiWind	WindDir	Rain 	Barom 
-----	----	-----	------	-----	-----	------	------	-------	-----	----- 
00:00	39.9	39.9	39.9	92	37.8	0	0	---	0.00	30.117 
00:05	39.8	39.8	39.8	92	37.7	0	0	---	0.00	30.117 
00:10	39.8	39.8	39.8	92	37.7	0	0	---	0.00	30.117 
00:15	39.6	39.6	39.6	92	37.5	0	0	---	0.00	30.117 
00:20	39.6	39.6	39.6	92	37.5	0	0	---	0.00	30.117 
00:25	39.6	39.6	39.6	93	37.7	0	0	---	0.00	30.117 
00:30	39.6	39.6	39.6	93	37.7	0	0	---	0.00	30.121 
00:35	39.5	39.5	39.5	93	37.6	0	0	---	0.00	30.121 
00:40	39.5	39.5	39.5	93	37.6	0	0	---	0.00	30.121 
00:45	39.3	39.3	39.3	93	37.4	0	0	---	0.00	30.120 
00:50	39.2	39.2	39.2	93	37.3	0	0	---	0.00	30.120 
00:55	39.1	39.1	39.1	93	37.2	0	0	---	0.00	30.120 
01:00	38.9	38.9	38.9	93	37.1	0	0	---	0.00	30.109 
01:05	38.8	38.8	38.8	93	37.0	0	0	---	0.00	30.109 
01:10	38.6	38.6	38.6	93	36.8	0	0	---	0.00	30.109 
01:15	38.5	38.5	38.5	93	36.7	0	0	---	0.00	30.105 
01:20	38.3	38.3	38.3	93	36.5	0	0	---	0.00	30.105 
01:25	38.2	38.2	38.2	93	36.4	0	0	---	0.00	30.105 
01:30	38.0	38.0	38.0	93	36.2	0	0	---	0.00	30.104 
01:35	38.0	38.0	38.0	93	36.2	0	0	---	0.00	30.104 
01:40	37.9	37.9	37.9	93	36.1	0	0	---	0.00	30.104 
01:45	37.8	37.8	37.8	93	36.0	0	0	---	0.00	30.107 
01:50	37.8	37.8	37.8	93	36.0	0	0	---	0.00	30.107 
01:55	37.6	37.6	37.6	93	35.8	0	0	---	0.00	30.107 
02:00	37.5	37.5	37.5	93	35.7	0	0	---	0.00	30.109 
02:05	37.3	37.3	37.3	93	35.5	0	0	---	0.00	30.109 
02:10	37.2	37.2	37.2	94	35.6	0	0	---	0.00	30.109 
02:15	37.2	37.2	37.2	94	35.6	0	0	---	0.00	30.111 
02:20	37.0	37.0	37.0	94	35.4	0	0	---	0.00	30.111 
02:25	36.9	36.9	36.9	94	35.3	0	0	---	0.00	30.111 
02:30	36.9	36.9	36.9	94	35.3	0	0	---	0.00	30.112 
02:35	36.8	36.8	36.8	94	35.2	0	0	---	0.00	30.112 
02:40	36.6	36.6	36.6	94	35.0	0	0	---	0.00	30.112 
02:45	36.6	36.6	36.6	94	35.0	0	0	---	0.00	30.111 
02:50	36.5	36.5	36.5	94	34.9	0	0	---	0.00	30.111 
02:55	36.3	36.3	36.3	94	34.7	0	0	---	0.00	30.111 
03:00	36.3	36.3	36.3	94	34.7	0	0	---	0.00	30.110 
03:05	36.2	36.2	36.2	94	34.6	0	0	---	0.00	30.110 
03:10	36.2	36.2	36.2	94	34.6	0	0	---	0.00	30.110 
03:15	36.0	36.0	36.0	94	34.4	0	0	---	0.00	30.107 
03:20	36.0	36.0	36.0	94	34.4	0	0	---	0.00	30.107 
03:25	35.9	35.9	35.9	94	34.3	0	0	---	0.00	30.107 
03:30	35.9	35.9	35.9	94	34.3	0	0	---	0.00	30.098 
03:35	35.8	35.8	35.8	94	34.2	0	0	---	0.00	30.098 
03:40	35.8	35.8	35.8	94	34.2	0	0	---	0.00	30.098 
03:45	35.6	35.6	35.6	94	34.0	0	0	---	0.00	30.092 
03:50	35.5	35.5	35.5	94	33.9	0	0	---	0.00	30.092 
03:55	35.3	35.3	35.3	94	33.7	0	0	---	0.00	30.092 
04:00	35.3	35.3	35.3	94	33.7	0	0	---	0.00	30.094 
04:05	35.2	35.2	35.2	94	33.6	0	0	---	0.00	30.094 
04:10	35.2	35.2	35.2	94	33.6	0	0	---	0.00	30.094 
04:15	35.2	35.2	35.2	94	33.6	0	0	---	0.00	30.093 
04:20	35.2	35.2	35.2	95	33.9	0	0	---	0.00	30.093 
04:25	35.2	35.2	35.2	95	33.9	0	0	---	0.00	30.093 
04:30	35.2	35.2	35.2	95	33.9	0	0	---	0.00	30.094 
04:35	35.2	35.2	35.2	95	33.9	0	0	---	0.00	30.094 
04:40	35.2	35.2	35.2	95	33.9	0	0	---	0.00	30.094 
04:45	35.0	35.0	35.0	95	33.7	0	0	---	0.00	30.100 
04:50	35.0	35.0	35.0	95	33.7	0	0	---	0.00	30.100 
04:55	34.9	34.9	34.9	94	33.4	0	0	---	0.00	30.100 
05:00	34.7	34.7	34.7	95	33.4	0	0	---	0.00	30.100 
05:05	34.6	34.6	34.6	94	33.1	0	0	---	0.00	30.100 
05:10	34.4	34.4	34.4	95	33.1	0	0	---	0.00	30.100 
05:15	34.6	34.6	34.6	95	33.3	0	0	---	0.00	30.098 
05:20	34.6	34.6	34.6	95	33.3	0	0	---	0.00	30.098 
05:25	34.6	34.6	34.6	95	33.3	0	0	---	0.00	30.098 
05:30	34.6	34.6	34.6	95	33.3	0	0	---	0.00	30.096 
05:35	34.4	34.4	34.4	95	33.1	0	0	---	0.00	30.096 
05:40	34.3	34.3	34.3	95	33.0	0	0	---	0.00	30.096 
05:45	34.3	34.3	34.3	95	33.0	0	0	---	0.00	30.094 
05:50	34.1	34.1	34.1	95	32.8	0	0	---	0.00	30.094 
05:55	34.1	34.1	34.1	95	32.8	0	0	---	0.00	30.094 
06:00	34.1	34.1	34.1	95	32.8	0	0	---	0.00	30.094 
06:05	34.0	34.0	34.0	95	32.7	0	0	---	0.00	30.094 
06:10	34.0	34.0	34.0	95	32.7	0	0	---	0.00	30.094 
06:15	34.0	34.0	34.0	95	32.7	0	0	---	0.00	30.097 
06:20	33.8	33.8	33.8	95	32.5	0	0	---	0.00	30.097 
06:25	33.8	33.8	33.8	95	32.5	0	0	---	0.00	30.097 
06:30	33.7	33.7	33.7	95	32.4	0	0	---	0.00	30.095 
06:35	33.7	33.7	33.7	95	32.4	0	0	---	0.00	30.095 
06:40	33.5	33.5	33.5	95	32.2	0	0	---	0.00	30.095 
06:45	33.5	33.5	33.5	95	32.2	0	0	---	0.00	30.095 
06:50	33.5	33.5	33.5	95	32.2	0	0	---	0.00	30.095 
06:55	33.5	33.5	33.5	95	32.2	0	0	---	0.00	30.095 
07:00	33.4	33.4	33.4	95	32.1	0	0	---	0.00	30.083 
07:05	33.4	33.4	33.4	95	32.1	0	0	---	0.00	30.083 
07:10	33.4	33.4	33.4	95	32.1	0	0	---	0.00	30.083 
07:15	33.4	33.4	33.4	95	32.1	0	0	---	0.00	30.093 
07:20	33.4	33.4	33.4	95	32.1	0	0	---	0.00	30.093 
07:25	33.4	33.4	33.4	95	32.1	0	0	---	0.00	30.093 
07:30	33.4	33.4	33.4	95	32.1	0	0	---	0.00	30.086 
07:35	33.4	33.4	33.4	95	32.1	0	0	---	0.00	30.086 
07:40	33.4	33.4	33.4	95	32.1	0	0	---	0.00	30.086 
07:45	33.5	33.5	33.5	95	32.2	0	0	---	0.00	30.096 
07:50	33.5	33.5	33.5	95	32.2	0	0	---	0.00	30.096 
07:55	33.7	33.7	33.7	95	32.4	0	0	---	0.00	30.096 
08:00	33.8	33.8	33.8	96	32.8	0	0	---	0.00	30.100 
08:05	34.0	34.0	34.0	96	33.0	0	0	---	0.00	30.100 
08:10	34.3	34.3	34.3	96	33.3	0	0	---	0.00	30.100 
08:15	34.6	34.6	34.6	96	33.6	0	0	---	0.00	30.110 
08:20	34.9	34.9	34.9	96	33.9	0	0	---	0.00	30.110 
08:25	35.3	35.3	35.3	96	34.3	0	0	---	0.00	30.110 
08:30	35.8	35.8	35.8	96	34.8	0	0	---	0.00	30.121 
08:35	36.2	36.2	36.2	96	35.2	0	0	---	0.00	30.121 
08:40	36.6	36.6	36.6	96	35.6	0	0	---	0.00	30.121 
08:45	37.0	37.0	37.0	96	36.0	0	0	---	0.00	30.120 
08:50	37.6	37.6	37.6	96	36.6	0	0	---	0.00	30.120 
08:55	38.2	38.2	38.2	96	37.2	0	0	---	0.00	30.120 
09:00	38.6	38.6	38.6	96	37.6	0	0	---	0.00	30.122 
09:05	39.2	39.2	39.2	96	38.2	0	0	---	0.00	30.122 
09:10	39.9	39.9	39.9	97	39.1	0	1	315	0.00	30.122 
09:15	40.5	40.5	40.5	97	39.7	0	1	315	0.00	30.116 
09:20	40.9	40.9	40.9	97	40.1	0	1	315	0.00	30.116 
09:25	41.3	41.3	41.3	96	40.2	0	1	315	0.00	30.116 
09:30	41.6	41.6	41.6	96	40.5	0	2	315	0.00	30.109 
09:35	42.1	42.1	42.1	96	41.0	1	3	338	0.00	30.109 
09:40	42.5	42.5	42.5	96	41.4	0	2	338	0.00	30.109 
09:45	42.8	42.8	42.8	96	41.7	0	2	338	0.00	30.104 
09:50	43.2	43.2	43.2	95	41.9	0	1	338	0.00	30.104 
09:55	43.6	43.6	43.6	95	42.3	0	2	292	0.00	30.104 
10:00	44.2	44.2	44.2	94	42.6	0	2	22	0.00	30.112 
10:05	44.9	44.9	44.9	94	43.3	0	1	22	0.00	30.112 
10:10	45.8	45.8	45.8	93	43.9	0	1	22	0.00	30.112 
10:15	47.0	47.0	47.0	91	44.5	0	1	22	0.00	30.109 
10:20	48.0	48.0	48.0	88	44.6	0	1	22	0.00	30.109 
10:25	49.2	49.2	49.2	85	44.9	0	1	22	0.00	30.109 
10:30	50.2	50.2	50.2	82	44.9	0	2	22	0.00	30.107 
10:35	50.8	50.8	50.8	75	43.2	1	3	0	0.00	30.107 
10:40	51.7	51.7	51.7	73	43.3	1	2	0	0.00	30.107 
10:45	52.6	52.6	52.6	72	43.8	0	2	135	0.00	30.105 
10:50	53.6	53.6	53.6	67	42.9	1	3	135	0.00	30.105 
10:55	54.1	54.1	54.1	64	42.2	1	3	112	0.00	30.105 
11:00	54.5	54.5	54.5	65	43.0	1	4	112	0.00	30.102 
11:05	54.8	54.8	54.8	63	42.4	1	4	90	0.00	30.102 
11:10	55.1	55.1	55.1	61	41.9	1	4	90	0.00	30.102 
11:15	55.6	55.6	55.6	62	42.8	1	4	90	0.00	30.089 
11:20	55.7	55.7	55.7	62	42.9	0	2	90	0.00	30.089 
11:25	56.0	56.0	56.0	64	44.0	0	2	0	0.00	30.089 
11:30	56.3	56.3	56.3	59	42.2	1	4	90	0.00	30.087 
11:35	56.3	56.3	56.3	59	42.2	1	6	68	0.00	30.087 
11:40	56.6	56.6	56.6	58	42.0	1	2	22	0.00	30.087 
11:45	56.5	56.5	56.5	58	41.9	1	3	135	0.00	30.073 
11:50	56.7	56.7	56.7	58	42.1	0	3	90	0.00	30.073 
11:55	56.7	56.7	56.7	57	41.6	0	3	270	0.00	30.073 
12:00	56.7	56.7	56.7	55	40.7	0	2	68	0.00	30.071 
12:05	57.0	57.0	57.0	55	41.0	1	3	68	0.00	30.071 
12:10	57.5	57.5	57.5	56	41.9	1	4	68	0.00	30.071 
12:15	58.3	58.3	58.3	53	41.2	0	1	90	0.00	30.071 
12:20	58.6	58.6	58.6	52	41.0	0	4	112	0.00	30.071 
12:25	58.7	58.7	58.7	53	41.6	1	3	112	0.00	30.071 
12:30	58.9	58.9	58.9	52	41.3	1	2	112	0.00	30.069 
12:35	58.9	58.9	58.9	52	41.3	0	4	248	0.00	30.069 
12:40	59.2	59.2	59.2	54	42.6	0	4	270	0.00	30.069 
12:45	59.8	59.8	59.8	55	43.6	1	3	90	0.00	30.067 
12:50	59.6	59.6	59.6	50	40.9	1	4	248	0.00	30.067 
12:55	59.9	59.9	59.9	51	41.7	0	3	248	0.00	30.067 
13:00	60.4	60.4	60.4	53	43.2	0	2	248	0.00	30.060 
13:05	60.5	60.5	60.5	48	40.7	1	3	248	0.00	30.060 
13:10	60.7	60.7	60.7	51	42.5	0	3	248	0.00	30.060 
13:15	60.9	60.9	60.9	50	42.1	0	2	248	0.00	30.053 
13:20	61.0	61.0	61.0	49	41.7	0	2	248	0.00	30.053 
13:25	60.9	60.9	60.9	47	40.5	1	3	248	0.00	30.053 
13:30	60.4	60.4	60.4	46	39.5	0	2	0	0.00	30.040 
13:35	60.2	60.2	60.2	46	39.3	0	2	22	0.00	30.040 
13:40	60.4	60.4	60.4	45	39.0	1	4	22	0.00	30.040 
13:45	60.1	60.1	60.1	49	40.9	1	3	90	0.00	30.035 
13:50	59.9	59.9	59.9	50	41.2	0	1	90	0.00	30.035 
13:55	60.1	60.1	60.1	49	40.9	0	3	90	0.00	30.035 
14:00	60.2	60.2	60.2	47	39.9	0	2	90	0.00	30.023 
14:05	60.1	60.1	60.1	47	39.8	0	2	90	0.00	30.023 
14:10	60.1	60.1	60.1	47	39.8	1	3	90	0.00	30.023 
14:15	60.4	60.4	60.4	46	39.5	1	4	90	0.00	30.022 
14:20	60.5	60.5	60.5	46	39.6	0	2	90	0.00	30.022 
14:25	60.9	60.9	60.9	46	40.0	0	2	90	0.00	30.022 
14:30	61.2	61.2	61.2	46	40.3	0	2	90	0.00	30.012 
14:35	61.5	61.5	61.5	43	38.8	0	2	68	0.00	30.012 
14:40	61.8	61.8	61.8	46	40.8	0	0	---	0.00	30.012 
14:45	61.6	61.6	61.6	43	38.9	1	3	112	0.00	30.008 
14:50	61.5	61.5	61.5	44	39.4	0	1	112	0.00	30.008 
14:55	61.3	61.3	61.3	43	38.6	0	2	112	0.00	30.008 
15:00	61.6	61.6	61.6	44	39.5	0	2	112	0.00	30.006 
15:05	62.0	62.0	62.0	41	38.0	0	1	112	0.00	30.006 
15:10	62.1	62.1	62.1	42	38.7	0	1	112	0.00	30.006 
15:15	62.3	62.3	62.3	45	40.7	0	2	112	0.00	30.003 
15:20	62.3	62.3	62.3	42	38.9	0	1	112	0.00	30.003 
15:25	62.4	62.4	62.4	41	38.4	0	2	112	0.00	30.003 
15:30	62.3	62.3	62.3	41	38.3	1	4	112	0.00	29.996 
15:35	62.3	62.3	62.3	43	39.5	0	2	112	0.00	29.996 
15:40	62.4	62.4	62.4	40	37.8	0	2	112	0.00	29.996 
15:45	62.3	62.3	62.3	41	38.3	0	2	270	0.00	29.991 
15:50	62.3	62.3	62.3	42	38.9	0	2	270	0.00	29.991 
15:55	62.3	62.3	62.3	44	40.1	0	1	270	0.00	29.991 
16:00	62.1	62.1	62.1	43	39.3	0	2	270	0.00	29.982 
16:05	62.0	62.0	62.0	44	39.8	0	2	270	0.00	29.982 
16:10	62.1	62.1	62.1	44	39.9	0	1	270	0.00	29.982 
16:15	62.3	62.3	62.3	42	38.9	0	1	270	0.00	29.977 
16:20	62.3	62.3	62.3	40	37.7	0	1	270	0.00	29.977 
16:25	62.1	62.1	62.1	43	39.3	0	1	270	0.00	29.977 
16:30	62.0	62.0	62.0	44	39.8	0	1	270	0.00	29.974 
16:35	61.8	61.8	61.8	44	39.7	0	3	270	0.00	29.974 
16:40	61.6	61.6	61.6	43	38.9	0	1	270	0.00	29.974 
16:45	61.5	61.5	61.5	45	40.0	0	1	270	0.00	29.961 
16:50	61.3	61.3	61.3	47	40.9	0	0	---	0.00	29.961 
16:55	61.3	61.3	61.3	49	42.0	0	0	---	0.00	29.961 
17:00	61.2	61.2	61.2	48	41.3	0	0	---	0.00	29.947 
17:05	61.0	61.0	61.0	47	40.6	0	1	270	0.00	29.947 
17:10	61.0	61.0	61.0	47	40.6	0	1	270	0.00	29.947 
17:15	60.9	60.9	60.9	48	41.1	0	0	---	0.00	29.946 
17:20	60.9	60.9	60.9	50	42.1	0	0	---	0.00	29.946 
17:25	60.7	60.7	60.7	55	44.4	0	0	---	0.00	29.946 
17:30	60.5	60.5	60.5	57	45.2	0	0	---	0.00	29.933 
17:35	60.5	60.5	60.5	55	44.2	0	0	---	0.00	29.933 
17:40	60.7	60.7	60.7	57	45.4	0	0	---	0.00	29.933 
17:45	60.7	60.7	60.7	56	44.9	0	1	270	0.00	29.924 
17:50	60.7	60.7	60.7	56	44.9	0	0	---	0.00	29.924 
17:55	60.7	60.7	60.7	56	44.9	0	1	270	0.00	29.924 
18:00	60.7	60.7	60.7	55	44.4	0	1	270	0.00	29.915 
18:05	60.9	60.9	60.9	55	44.6	0	1	270	0.00	29.915 
18:10	60.7	60.7	60.7	54	44.0	0	1	270	0.00	29.915 
18:15	60.7	60.7	60.7	56	44.9	0	1	270	0.00	29.905 
18:20	60.5	60.5	60.5	58	45.6	0	1	270	0.00	29.905 
18:25	60.2	60.2	60.2	58	45.4	0	1	270	0.00	29.905 
18:30	59.9	59.9	59.9	59	45.5	0	0	---	0.00	29.909 
18:35	59.5	59.5	59.5	60	45.6	0	0	---	0.00	29.909 
18:40	59.2	59.2	59.2	63	46.6	0	0	---	0.01	29.909 
18:45	58.6	58.6	58.6	66	47.3	0	0	---	0.00	29.915 
18:50	58.1	58.1	58.1	68	47.6	0	0	---	0.00	29.915 
18:55	57.5	57.5	57.5	70	47.8	0	0	---	0.00	29.915 
19:00	57.0	57.0	57.0	73	48.4	0	0	---	0.00	29.906 
19:05	56.6	56.6	56.6	78	49.8	0	0	---	0.00	29.906 
19:10	56.2	56.2	56.2	79	49.8	0	1	270	0.01	29.906 
19:15	55.6	55.6	55.6	77	48.5	0	1	270	0.00	29.890 
19:20	55.3	55.3	55.3	78	48.6	0	0	---	0.00	29.890 
19:25	55.0	55.0	55.0	79	48.6	0	0	---	0.00	29.890 
19:30	54.7	54.7	54.7	79	48.3	0	0	---	0.00	29.910 
19:35	54.5	54.5	54.5	80	48.5	0	0	---	0.00	29.910 
19:40	54.4	54.4	54.4	81	48.7	0	0	---	0.00	29.910 
19:45	54.2	54.2	54.2	82	48.8	0	0	---	0.00	29.929 
19:50	54.1	54.1	54.1	83	49.1	0	0	---	0.00	29.929 
19:55	54.1	54.1	54.1	84	49.4	0	0	---	0.00	29.929 
20:00	53.9	53.9	53.9	84	49.2	0	0	---	0.00	29.928 
20:05	53.8	53.8	53.8	85	49.4	0	0	---	0.01	29.928 
20:10	53.8	53.8	53.8	86	49.7	0	0	---	0.00	29.928 
20:15	53.8	53.8	53.8	87	50.0	0	0	---	0.00	29.921 
20:20	53.6	53.6	53.6	88	50.1	0	0	---	0.00	29.921 
20:25	53.6	53.6	53.6	88	50.1	0	2	270	0.00	29.921 
20:30	53.3	53.3	53.3	88	49.8	0	1	270	0.00	29.926 
20:35	53.2	53.2	53.2	88	49.7	0	1	270	0.01	29.926 
20:40	52.9	52.9	52.9	87	49.1	0	1	270	0.00	29.926 
20:45	52.8	52.8	52.8	87	49.0	0	2	270	0.01	29.918 
20:50	52.6	52.6	52.6	86	48.5	0	2	270	0.00	29.918 
20:55	52.3	52.3	52.3	86	48.2	0	2	90	0.01	29.918 
21:00	52.2	52.2	52.2	86	48.1	1	4	90	0.00	29.914 
21:05	52.0	52.0	52.0	87	48.3	0	1	90	0.00	29.914 
21:10	51.9	51.9	51.9	87	48.2	0	2	112	0.00	29.914 
21:15	51.9	51.9	51.9	87	48.2	0	0	---	0.00	29.908 
21:20	51.9	51.9	51.9	88	48.5	0	1	112	0.00	29.908 
21:25	51.9	51.9	51.9	88	48.5	0	2	112	0.00	29.908 
21:30	51.7	51.7	51.7	88	48.3	0	1	112	0.00	29.899 
21:35	51.7	51.7	51.7	88	48.3	0	1	112	0.00	29.899 
21:40	51.6	51.6	51.6	88	48.2	0	2	112	0.00	29.899 
21:45	51.6	51.6	51.6	88	48.2	0	2	112	0.00	29.875 
21:50	51.6	51.6	51.6	87	47.9	1	4	112	0.00	29.875 
21:55	51.6	51.6	51.6	87	47.9	0	3	112	0.00	29.875 
22:00	51.6	51.6	51.6	87	47.9	0	2	112	0.00	29.869 
22:05	51.6	51.6	51.6	87	47.9	0	2	112	0.00	29.869 
22:10	51.6	51.6	51.6	87	47.9	0	3	112	0.00	29.869 
22:15	51.6	51.6	51.6	87	47.9	0	3	68	0.00	29.862 
22:20	51.6	51.6	51.6	87	47.9	0	2	68	0.00	29.862 
22:25	51.6	51.6	51.6	87	47.9	0	4	68	0.00	29.862 
22:30	51.6	51.6	51.6	87	47.9	0	0	---	0.00	29.873 
22:35	51.7	51.7	51.7	88	48.3	1	4	68	0.00	29.873 
22:40	51.7	51.7	51.7	88	48.3	1	3	68	0.00	29.873 
22:45	51.6	51.6	51.6	88	48.2	1	3	68	0.00	29.855 
22:50	51.6	51.6	51.6	88	48.2	1	3	68	0.00	29.855 
22:55	51.6	51.6	51.6	88	48.2	1	3	68	0.00	29.855 
23:00	51.6	51.6	51.6	89	48.5	1	3	68	0.00	29.842 
23:05	51.6	51.6	51.6	89	48.5	2	5	90	0.00	29.842 
23:10	51.4	51.4	51.4	89	48.3	1	3	90	0.01	29.842 
23:15	51.4	51.4	51.4	89	48.3	1	3	112	0.00	29.841 
23:20	51.4	51.4	51.4	89	48.3	1	3	90	0.00	29.841 
23:25	51.3	51.3	51.3	89	48.2	1	4	90	0.00	29.841 
23:30	51.3	51.3	51.3	90	48.5	1	3	90	0.00	29.838 
23:35	51.3	51.3	51.3	89	48.2	1	2	90	0.00	29.838 
23:40	51.3	51.3	51.3	89	48.2	0	2	90	0.00	29.838 
23:45	51.3	51.3	51.3	89	48.2	0	1	90	0.00	29.844 
23:50	51.1	51.1	51.1	89	48.0	0	3	90	0.01	29.844 
23:55	51.1	51.1	51.1	90	48.3	0	0	---	0.00	29.844 

CoCoRaHS
IN-AL-39
A2 Web Hosting
Creative Commons License
GoDaddy
search engine by freefind advanced

loaded 2018-11-21 01:28:28 • last modified 2010-11-18 10:43:29
Privacy PolicyDisclaimer
• wx.awcolley.com is powered by PmWiki v.2002016 •
• all content (unless otherwise noted) © 2018 A W Colley